sensor_id;sensor_type;location;lat;lon;timestamp;P1;durP1;ratioP1;P2;durP2;ratioP2
7969;SDS011;4030;52.362;9.206;2023-04-01T00:00:18;1.55;;;0.60;;
7969;SDS011;4030;52.362;9.206;2023-04-01T00:02:44;1.25;;;0.70;;
7969;SDS011;4030;52.362;9.206;2023-04-01T00:05:11;1.60;;;0.80;;
7969;SDS011;4030;52.362;9.206;2023-04-01T00:07:37;2.35;;;0.80;;
7969;SDS011;4030;52.362;9.206;2023-04-01T00:10:05;1.33;;;0.70;;
7969;SDS011;4030;52.362;9.206;2023-04-01T00:12:33;1.48;;;0.70;;
7969;SDS011;4030;52.362;9.206;2023-04-01T00:14:59;1.58;;;0.80;;
7969;SDS011;4030;52.362;9.206;2023-04-01T00:17:25;1.48;;;0.70;;
7969;SDS011;4030;52.362;9.206;2023-04-01T00:19:51;1.83;;;0.68;;
7969;SDS011;4030;52.362;9.206;2023-04-01T00:22:16;1.38;;;0.90;;
7969;SDS011;4030;52.362;9.206;2023-04-01T00:24:42;0.95;;;0.60;;
7969;SDS011;4030;52.362;9.206;2023-04-01T00:27:08;0.98;;;0.68;;
7969;SDS011;4030;52.362;9.206;2023-04-01T00:29:34;1.63;;;0.80;;
7969;SDS011;4030;52.362;9.206;2023-04-01T00:32:00;1.30;;;0.70;;
7969;SDS011;4030;52.362;9.206;2023-04-01T00:34:26;1.30;;;0.70;;
7969;SDS011;4030;52.362;9.206;2023-04-01T00:36:52;0.95;;;0.50;;
7969;SDS011;4030;52.362;9.206;2023-04-01T00:39:19;0.80;;;0.60;;
7969;SDS011;4030;52.362;9.206;2023-04-01T00:41:45;0.75;;;0.70;;
7969;SDS011;4030;52.362;9.206;2023-04-01T00:44:21;0.88;;;0.60;;
7969;SDS011;4030;52.362;9.206;2023-04-01T00:46:57;0.98;;;0.60;;
7969;SDS011;4030;52.362;9.206;2023-04-01T00:49:25;1.20;;;0.65;;
7969;SDS011;4030;52.362;9.206;2023-04-01T00:51:55;0.95;;;0.63;;
7969;SDS011;4030;52.362;9.206;2023-04-01T00:54:24;1.05;;;0.60;;
7969;SDS011;4030;52.362;9.206;2023-04-01T00:57:27;2.10;;;0.70;;
7969;SDS011;4030;52.362;9.206;2023-04-01T00:59:52;0.80;;;0.52;;
7969;SDS011;4030;52.362;9.206;2023-04-01T01:02:20;1.77;;;0.70;;
7969;SDS011;4030;52.362;9.206;2023-04-01T01:04:48;1.45;;;0.70;;
7969;SDS011;4030;52.362;9.206;2023-04-01T01:07:20;1.55;;;0.63;;
7969;SDS011;4030;52.362;9.206;2023-04-01T01:10:16;1.38;;;0.68;;
7969;SDS011;4030;52.362;9.206;2023-04-01T01:20:58;1.67;;;0.80;;
7969;SDS011;4030;52.362;9.206;2023-04-01T01:29:35;1.23;;;0.70;;
7969;SDS011;4030;52.362;9.206;2023-04-01T01:35:22;0.65;;;0.57;;
7969;SDS011;4030;52.362;9.206;2023-04-01T01:38:05;1.15;;;0.60;;
7969;SDS011;4030;52.362;9.206;2023-04-01T01:40:35;0.85;;;0.70;;
7969;SDS011;4030;52.362;9.206;2023-04-01T01:43:05;1.15;;;0.70;;
7969;SDS011;4030;52.362;9.206;2023-04-01T01:45:36;0.68;;;0.55;;
7969;SDS011;4030;52.362;9.206;2023-04-01T01:48:07;1.38;;;0.70;;
7969;SDS011;4030;52.362;9.206;2023-04-01T01:50:34;1.25;;;0.70;;
7969;SDS011;4030;52.362;9.206;2023-04-01T01:53:02;0.95;;;0.60;;
7969;SDS011;4030;52.362;9.206;2023-04-01T01:55:34;0.77;;;0.60;;
7969;SDS011;4030;52.362;9.206;2023-04-01T01:58:11;1.77;;;0.82;;
7969;SDS011;4030;52.362;9.206;2023-04-01T02:00:43;1.23;;;0.70;;
7969;SDS011;4030;52.362;9.206;2023-04-01T02:03:16;1.10;;;0.50;;
7969;SDS011;4030;52.362;9.206;2023-04-01T02:05:45;1.48;;;0.68;;
7969;SDS011;4030;52.362;9.206;2023-04-01T02:08:15;1.42;;;0.60;;
7969;SDS011;4030;52.362;9.206;2023-04-01T02:11:06;0.85;;;0.55;;
7969;SDS011;4030;52.362;9.206;2023-04-01T02:13:37;2.20;;;0.73;;
7969;SDS011;4030;52.362;9.206;2023-04-01T02:16:13;0.68;;;0.60;;
7969;SDS011;4030;52.362;9.206;2023-04-01T02:18:46;1.85;;;0.60;;
7969;SDS011;4030;52.362;9.206;2023-04-01T02:21:15;1.10;;;0.63;;
7969;SDS011;4030;52.362;9.206;2023-04-01T02:23:43;0.80;;;0.50;;
7969;SDS011;4030;52.362;9.206;2023-04-01T02:26:10;1.33;;;0.70;;
7969;SDS011;4030;52.362;9.206;2023-04-01T02:28:37;0.65;;;0.50;;
7969;SDS011;4030;52.362;9.206;2023-04-01T02:31:05;0.60;;;0.47;;
7969;SDS011;4030;52.362;9.206;2023-04-01T02:33:33;0.82;;;0.50;;
7969;SDS011;4030;52.362;9.206;2023-04-01T02:35:59;0.50;;;0.50;;
7969;SDS011;4030;52.362;9.206;2023-04-01T02:38:25;0.60;;;0.60;;
7969;SDS011;4030;52.362;9.206;2023-04-01T02:40:56;0.77;;;0.50;;
7969;SDS011;4030;52.362;9.206;2023-04-01T02:43:25;1.02;;;0.50;;
7969;SDS011;4030;52.362;9.206;2023-04-01T02:45:51;0.80;;;0.70;;
7969;SDS011;4030;52.362;9.206;2023-04-01T02:48:17;1.02;;;0.50;;
7969;SDS011;4030;52.362;9.206;2023-04-01T02:50:43;1.17;;;0.65;;
7969;SDS011;4030;52.362;9.206;2023-04-01T02:53:10;1.08;;;0.50;;
7969;SDS011;4030;52.362;9.206;2023-04-01T02:55:36;0.85;;;0.50;;
7969;SDS011;4030;52.362;9.206;2023-04-01T02:58:02;0.77;;;0.57;;
7969;SDS011;4030;52.362;9.206;2023-04-01T03:00:28;0.80;;;0.50;;
7969;SDS011;4030;52.362;9.206;2023-04-01T03:02:54;2.15;;;0.50;;
7969;SDS011;4030;52.362;9.206;2023-04-01T03:05:21;0.95;;;0.60;;
7969;SDS011;4030;52.362;9.206;2023-04-01T03:07:47;0.80;;;0.50;;
7969;SDS011;4030;52.362;9.206;2023-04-01T03:10:12;1.13;;;0.55;;
7969;SDS011;4030;52.362;9.206;2023-04-01T03:12:38;0.73;;;0.47;;
7969;SDS011;4030;52.362;9.206;2023-04-01T03:15:05;0.52;;;0.50;;
7969;SDS011;4030;52.362;9.206;2023-04-01T03:17:31;0.82;;;0.50;;
7969;SDS011;4030;52.362;9.206;2023-04-01T03:19:57;0.88;;;0.60;;
7969;SDS011;4030;52.362;9.206;2023-04-01T03:22:22;0.52;;;0.52;;
7969;SDS011;4030;52.362;9.206;2023-04-01T03:24:49;1.17;;;0.50;;
7969;SDS011;4030;52.362;9.206;2023-04-01T03:27:15;0.50;;;0.50;;
7969;SDS011;4030;52.362;9.206;2023-04-01T03:29:41;0.75;;;0.60;;
7969;SDS011;4030;52.362;9.206;2023-04-01T03:32:06;1.15;;;0.60;;
7969;SDS011;4030;52.362;9.206;2023-04-01T03:34:33;2.15;;;0.50;;
7969;SDS011;4030;52.362;9.206;2023-04-01T03:36:59;0.63;;;0.50;;
7969;SDS011;4030;52.362;9.206;2023-04-01T03:39:25;1.30;;;0.60;;
7969;SDS011;4030;52.362;9.206;2023-04-01T03:41:51;1.10;;;0.60;;
7969;SDS011;4030;52.362;9.206;2023-04-01T03:44:17;1.38;;;0.63;;
7969;SDS011;4030;52.362;9.206;2023-04-01T03:46:43;0.40;;;0.40;;
7969;SDS011;4030;52.362;9.206;2023-04-01T03:49:09;0.85;;;0.50;;
7969;SDS011;4030;52.362;9.206;2023-04-01T03:51:39;0.65;;;0.40;;
7969;SDS011;4030;52.362;9.206;2023-04-01T03:54:07;1.02;;;0.55;;
7969;SDS011;4030;52.362;9.206;2023-04-01T03:56:34;0.88;;;0.47;;
7969;SDS011;4030;52.362;9.206;2023-04-01T03:59:03;0.82;;;0.60;;
7969;SDS011;4030;52.362;9.206;2023-04-01T04:01:31;1.00;;;0.50;;
7969;SDS011;4030;52.362;9.206;2023-04-01T04:03:57;0.50;;;0.50;;
7969;SDS011;4030;52.362;9.206;2023-04-01T04:06:24;0.55;;;0.50;;
7969;SDS011;4030;52.362;9.206;2023-04-01T04:08:50;0.95;;;0.50;;
7969;SDS011;4030;52.362;9.206;2023-04-01T04:11:16;1.02;;;0.50;;
7969;SDS011;4030;52.362;9.206;2023-04-01T04:13:43;1.27;;;0.47;;
7969;SDS011;4030;52.362;9.206;2023-04-01T04:16:09;0.70;;;0.50;;
7969;SDS011;4030;52.362;9.206;2023-04-01T04:18:36;0.57;;;0.50;;
7969;SDS011;4030;52.362;9.206;2023-04-01T04:21:02;1.35;;;0.50;;
7969;SDS011;4030;52.362;9.206;2023-04-01T04:23:28;1.00;;;0.57;;
7969;SDS011;4030;52.362;9.206;2023-04-01T04:25:59;1.27;;;0.57;;
7969;SDS011;4030;52.362;9.206;2023-04-01T04:28:34;0.77;;;0.60;;
7969;SDS011;4030;52.362;9.206;2023-04-01T04:31:00;0.90;;;0.52;;
7969;SDS011;4030;52.362;9.206;2023-04-01T04:33:26;1.40;;;0.60;;
7969;SDS011;4030;52.362;9.206;2023-04-01T04:35:54;0.90;;;0.50;;
7969;SDS011;4030;52.362;9.206;2023-04-01T04:38:22;0.52;;;0.43;;
7969;SDS011;4030;52.362;9.206;2023-04-01T04:40:48;1.40;;;0.50;;
7969;SDS011;4030;52.362;9.206;2023-04-01T04:43:14;0.77;;;0.50;;
7969;SDS011;4030;52.362;9.206;2023-04-01T04:45:42;0.63;;;0.43;;
7969;SDS011;4030;52.362;9.206;2023-04-01T04:48:10;1.25;;;0.60;;
7969;SDS011;4030;52.362;9.206;2023-04-01T04:50:43;0.93;;;0.50;;
7969;SDS011;4030;52.362;9.206;2023-04-01T04:53:13;0.68;;;0.50;;
7969;SDS011;4030;52.362;9.206;2023-04-01T04:55:45;0.57;;;0.50;;
7969;SDS011;4030;52.362;9.206;2023-04-01T04:58:13;1.45;;;0.68;;
7969;SDS011;4030;52.362;9.206;2023-04-01T05:00:39;0.82;;;0.40;;
7969;SDS011;4030;52.362;9.206;2023-04-01T05:03:05;1.27;;;0.60;;
7969;SDS011;4030;52.362;9.206;2023-04-01T05:05:31;0.77;;;0.50;;
7969;SDS011;4030;52.362;9.206;2023-04-01T05:07:58;0.57;;;0.50;;
7969;SDS011;4030;52.362;9.206;2023-04-01T05:10:24;0.50;;;0.50;;
7969;SDS011;4030;52.362;9.206;2023-04-01T05:12:50;0.82;;;0.50;;
7969;SDS011;4030;52.362;9.206;2023-04-01T05:15:15;0.50;;;0.50;;
7969;SDS011;4030;52.362;9.206;2023-04-01T05:17:41;0.63;;;0.50;;
7969;SDS011;4030;52.362;9.206;2023-04-01T05:20:07;0.57;;;0.45;;
7969;SDS011;4030;52.362;9.206;2023-04-01T05:22:33;1.17;;;0.60;;
7969;SDS011;4030;52.362;9.206;2023-04-01T05:24:59;1.15;;;0.60;;
7969;SDS011;4030;52.362;9.206;2023-04-01T05:27:25;1.10;;;0.60;;
7969;SDS011;4030;52.362;9.206;2023-04-01T05:29:52;0.73;;;0.50;;
7969;SDS011;4030;52.362;9.206;2023-04-01T05:32:18;1.40;;;0.60;;
7969;SDS011;4030;52.362;9.206;2023-04-01T05:34:44;0.80;;;0.60;;
7969;SDS011;4030;52.362;9.206;2023-04-01T05:37:10;0.50;;;0.50;;
7969;SDS011;4030;52.362;9.206;2023-04-01T05:39:36;0.50;;;0.50;;
7969;SDS011;4030;52.362;9.206;2023-04-01T05:42:05;0.52;;;0.52;;
7969;SDS011;4030;52.362;9.206;2023-04-01T05:44:32;0.55;;;0.40;;
7969;SDS011;4030;52.362;9.206;2023-04-01T05:46:58;0.80;;;0.60;;
7969;SDS011;4030;52.362;9.206;2023-04-01T05:49:24;0.63;;;0.50;;
7969;SDS011;4030;52.362;9.206;2023-04-01T05:51:50;0.73;;;0.40;;
7969;SDS011;4030;52.362;9.206;2023-04-01T05:54:16;0.75;;;0.50;;
7969;SDS011;4030;52.362;9.206;2023-04-01T05:56:43;0.90;;;0.60;;
7969;SDS011;4030;52.362;9.206;2023-04-01T05:59:09;1.15;;;0.60;;
7969;SDS011;4030;52.362;9.206;2023-04-01T06:01:36;0.45;;;0.45;;
7969;SDS011;4030;52.362;9.206;2023-04-01T06:04:02;1.30;;;0.50;;
7969;SDS011;4030;52.362;9.206;2023-04-01T06:06:28;0.68;;;0.60;;
7969;SDS011;4030;52.362;9.206;2023-04-01T06:09:33;0.77;;;0.57;;
7969;SDS011;4030;52.362;9.206;2023-04-01T06:14:44;0.77;;;0.45;;
7969;SDS011;4030;52.362;9.206;2023-04-01T06:28:49;0.88;;;0.60;;
7969;SDS011;4030;52.362;9.206;2023-04-01T06:37:47;0.75;;;0.65;;
7969;SDS011;4030;52.362;9.206;2023-04-01T06:40:38;0.63;;;0.57;;
7969;SDS011;4030;52.362;9.206;2023-04-01T06:46:20;0.82;;;0.52;;
7969;SDS011;4030;52.362;9.206;2023-04-01T06:55:14;0.47;;;0.40;;
7969;SDS011;4030;52.362;9.206;2023-04-01T06:57:50;1.02;;;0.60;;
7969;SDS011;4030;52.362;9.206;2023-04-01T07:00:34;0.55;;;0.55;;
7969;SDS011;4030;52.362;9.206;2023-04-01T07:05:56;0.63;;;0.63;;
7969;SDS011;4030;52.362;9.206;2023-04-01T07:08:31;0.75;;;0.63;;
7969;SDS011;4030;52.362;9.206;2023-04-01T07:11:04;1.15;;;0.55;;
7969;SDS011;4030;52.362;9.206;2023-04-01T07:13:44;1.25;;;0.68;;
7969;SDS011;4030;52.362;9.206;2023-04-01T07:16:29;0.95;;;0.60;;
7969;SDS011;4030;52.362;9.206;2023-04-01T07:19:06;1.23;;;0.57;;
7969;SDS011;4030;52.362;9.206;2023-04-01T07:21:49;1.10;;;0.52;;
7969;SDS011;4030;52.362;9.206;2023-04-01T07:24:32;0.40;;;0.40;;
7969;SDS011;4030;52.362;9.206;2023-04-01T07:27:01;0.40;;;0.40;;
7969;SDS011;4030;52.362;9.206;2023-04-01T07:29:27;0.63;;;0.55;;
7969;SDS011;4030;52.362;9.206;2023-04-01T07:34:26;0.50;;;0.50;;
7969;SDS011;4030;52.362;9.206;2023-04-01T07:39:38;0.70;;;0.60;;
7969;SDS011;4030;52.362;9.206;2023-04-01T07:42:22;0.55;;;0.45;;
7969;SDS011;4030;52.362;9.206;2023-04-01T07:47:59;1.00;;;0.50;;
7969;SDS011;4030;52.362;9.206;2023-04-01T07:51:13;0.80;;;0.70;;
7969;SDS011;4030;52.362;9.206;2023-04-01T07:54:13;0.68;;;0.60;;
7969;SDS011;4030;52.362;9.206;2023-04-01T07:56:51;0.88;;;0.60;;
7969;SDS011;4030;52.362;9.206;2023-04-01T08:05:14;0.52;;;0.52;;
7969;SDS011;4030;52.362;9.206;2023-04-01T08:13:25;0.60;;;0.60;;
7969;SDS011;4030;52.362;9.206;2023-04-01T08:16:23;0.60;;;0.60;;
7969;SDS011;4030;52.362;9.206;2023-04-01T08:19:11;0.50;;;0.50;;
7969;SDS011;4030;52.362;9.206;2023-04-01T08:22:07;0.50;;;0.50;;
7969;SDS011;4030;52.362;9.206;2023-04-01T08:24:43;0.50;;;0.50;;
7969;SDS011;4030;52.362;9.206;2023-04-01T08:27:26;0.60;;;0.60;;
7969;SDS011;4030;52.362;9.206;2023-04-01T08:30:25;1.45;;;0.50;;
7969;SDS011;4030;52.362;9.206;2023-04-01T08:33:30;0.50;;;0.50;;
7969;SDS011;4030;52.362;9.206;2023-04-01T08:35:59;1.02;;;0.57;;
7969;SDS011;4030;52.362;9.206;2023-04-01T08:41:33;1.02;;;0.50;;
7969;SDS011;4030;52.362;9.206;2023-04-01T08:47:44;0.95;;;0.50;;
7969;SDS011;4030;52.362;9.206;2023-04-01T08:53:18;0.50;;;0.50;;
7969;SDS011;4030;52.362;9.206;2023-04-01T08:56:33;0.40;;;0.40;;
7969;SDS011;4030;52.362;9.206;2023-04-01T09:14:30;1.52;;;0.47;;
7969;SDS011;4030;52.362;9.206;2023-04-01T09:23:40;0.70;;;0.70;;
7969;SDS011;4030;52.362;9.206;2023-04-01T09:26:27;0.60;;;0.60;;
7969;SDS011;4030;52.362;9.206;2023-04-01T09:32:16;0.47;;;0.47;;
7969;SDS011;4030;52.362;9.206;2023-04-01T09:35:14;0.50;;;0.50;;
7969;SDS011;4030;52.362;9.206;2023-04-01T09:38:19;0.50;;;0.50;;
7969;SDS011;4030;52.362;9.206;2023-04-01T09:44:11;0.50;;;0.50;;
7969;SDS011;4030;52.362;9.206;2023-04-01T09:50:04;0.65;;;0.52;;
7969;SDS011;4030;52.362;9.206;2023-04-01T10:02:06;0.50;;;0.50;;
7969;SDS011;4030;52.362;9.206;2023-04-01T10:05:42;0.63;;;0.63;;
7969;SDS011;4030;52.362;9.206;2023-04-01T10:11:22;1.05;;;0.85;;
7969;SDS011;4030;52.362;9.206;2023-04-01T10:14:25;2.08;;;1.00;;
7969;SDS011;4030;52.362;9.206;2023-04-01T10:17:52;1.08;;;0.90;;
7969;SDS011;4030;52.362;9.206;2023-04-01T10:20:57;1.85;;;0.90;;
7969;SDS011;4030;52.362;9.206;2023-04-01T10:29:42;1.58;;;1.00;;
7969;SDS011;4030;52.362;9.206;2023-04-01T10:32:45;0.90;;;0.80;;
7969;SDS011;4030;52.362;9.206;2023-04-01T10:47:18;0.60;;;0.60;;
7969;SDS011;4030;52.362;9.206;2023-04-01T10:50:24;0.98;;;0.70;;
7969;SDS011;4030;52.362;9.206;2023-04-01T11:13:47;0.50;;;0.50;;
7969;SDS011;4030;52.362;9.206;2023-04-01T11:26:05;1.75;;;0.70;;
7969;SDS011;4030;52.362;9.206;2023-04-01T11:29:02;0.70;;;0.60;;
7969;SDS011;4030;52.362;9.206;2023-04-01T11:31:57;0.60;;;0.55;;
7969;SDS011;4030;52.362;9.206;2023-04-01T11:34:55;0.60;;;0.50;;
7969;SDS011;4030;52.362;9.206;2023-04-01T11:43:21;0.40;;;0.40;;
7969;SDS011;4030;52.362;9.206;2023-04-01T11:46:23;0.55;;;0.50;;
7969;SDS011;4030;52.362;9.206;2023-04-01T11:58:27;0.55;;;0.50;;
7969;SDS011;4030;52.362;9.206;2023-04-01T12:01:20;0.88;;;0.60;;
7969;SDS011;4030;52.362;9.206;2023-04-01T12:04:04;1.23;;;0.70;;
7969;SDS011;4030;52.362;9.206;2023-04-01T12:12:29;0.50;;;0.50;;
7969;SDS011;4030;52.362;9.206;2023-04-01T12:15:22;0.68;;;0.60;;
7969;SDS011;4030;52.362;9.206;2023-04-01T12:18:36;1.38;;;0.60;;
7969;SDS011;4030;52.362;9.206;2023-04-01T12:21:14;1.08;;;0.68;;
7969;SDS011;4030;52.362;9.206;2023-04-01T12:24:25;0.70;;;0.55;;
7969;SDS011;4030;52.362;9.206;2023-04-01T12:30:32;1.92;;;0.82;;
7969;SDS011;4030;52.362;9.206;2023-04-01T12:33:20;1.45;;;0.80;;
7969;SDS011;4030;52.362;9.206;2023-04-01T12:45:00;3.28;;;0.90;;
7969;SDS011;4030;52.362;9.206;2023-04-01T12:47:56;0.95;;;0.88;;
7969;SDS011;4030;52.362;9.206;2023-04-01T12:55:50;1.13;;;0.70;;
7969;SDS011;4030;52.362;9.206;2023-04-01T13:05:18;1.23;;;1.10;;
7969;SDS011;4030;52.362;9.206;2023-04-01T13:11:18;2.13;;;0.98;;
7969;SDS011;4030;52.362;9.206;2023-04-01T13:17:15;1.33;;;0.80;;
7969;SDS011;4030;52.362;9.206;2023-04-01T13:28:17;0.60;;;0.60;;
7969;SDS011;4030;52.362;9.206;2023-04-01T13:33:45;0.65;;;0.60;;
7969;SDS011;4030;52.362;9.206;2023-04-01T13:42:40;1.00;;;0.60;;
7969;SDS011;4030;52.362;9.206;2023-04-01T13:45:20;0.90;;;0.80;;
7969;SDS011;4030;52.362;9.206;2023-04-01T13:51:15;2.08;;;1.20;;
7969;SDS011;4030;52.362;9.206;2023-04-01T13:57:11;2.17;;;1.60;;
7969;SDS011;4030;52.362;9.206;2023-04-01T14:05:29;3.17;;;2.80;;
7969;SDS011;4030;52.362;9.206;2023-04-01T14:11:16;3.50;;;2.75;;
7969;SDS011;4030;52.362;9.206;2023-04-01T14:23:13;3.17;;;2.38;;
7969;SDS011;4030;52.362;9.206;2023-04-01T14:29:24;2.50;;;2.00;;
7969;SDS011;4030;52.362;9.206;2023-04-01T14:34:50;1.80;;;1.70;;
7969;SDS011;4030;52.362;9.206;2023-04-01T14:40:28;1.25;;;1.15;;
7969;SDS011;4030;52.362;9.206;2023-04-01T14:49:42;1.40;;;1.20;;
7969;SDS011;4030;52.362;9.206;2023-04-01T14:52:13;1.73;;;1.40;;
7969;SDS011;4030;52.362;9.206;2023-04-01T14:54:52;1.52;;;1.25;;
7969;SDS011;4030;52.362;9.206;2023-04-01T14:57:29;1.33;;;1.15;;
7969;SDS011;4030;52.362;9.206;2023-04-01T14:59:59;1.13;;;1.02;;
7969;SDS011;4030;52.362;9.206;2023-04-01T15:08:27;1.45;;;0.80;;
7969;SDS011;4030;52.362;9.206;2023-04-01T15:14:17;1.75;;;1.35;;
7969;SDS011;4030;52.362;9.206;2023-04-01T15:20:29;2.72;;;2.10;;
7969;SDS011;4030;52.362;9.206;2023-04-01T15:23:40;1.92;;;1.70;;
7969;SDS011;4030;52.362;9.206;2023-04-01T15:29:25;2.85;;;2.30;;
7969;SDS011;4030;52.362;9.206;2023-04-01T15:32:21;2.90;;;2.40;;
7969;SDS011;4030;52.362;9.206;2023-04-01T15:35:20;3.75;;;3.08;;
7969;SDS011;4030;52.362;9.206;2023-04-01T15:44:00;3.00;;;2.70;;
7969;SDS011;4030;52.362;9.206;2023-04-01T15:49:10;3.65;;;2.60;;
7969;SDS011;4030;52.362;9.206;2023-04-01T15:51:46;2.40;;;2.20;;
7969;SDS011;4030;52.362;9.206;2023-04-01T15:54:23;3.05;;;1.92;;
7969;SDS011;4030;52.362;9.206;2023-04-01T16:02:27;1.70;;;1.60;;
7969;SDS011;4030;52.362;9.206;2023-04-01T16:05:04;1.58;;;1.40;;
7969;SDS011;4030;52.362;9.206;2023-04-01T16:07:53;1.52;;;1.42;;
7969;SDS011;4030;52.362;9.206;2023-04-01T16:13:37;1.70;;;1.40;;
7969;SDS011;4030;52.362;9.206;2023-04-01T16:16:40;1.13;;;1.02;;
7969;SDS011;4030;52.362;9.206;2023-04-01T16:19:41;0.93;;;0.90;;
7969;SDS011;4030;52.362;9.206;2023-04-01T16:22:38;0.80;;;0.80;;
7969;SDS011;4030;52.362;9.206;2023-04-01T16:25:19;0.85;;;0.85;;
7969;SDS011;4030;52.362;9.206;2023-04-01T16:27:58;0.73;;;0.73;;
7969;SDS011;4030;52.362;9.206;2023-04-01T16:33:46;0.63;;;0.63;;
7969;SDS011;4030;52.362;9.206;2023-04-01T16:36:26;0.80;;;0.80;;
7969;SDS011;4030;52.362;9.206;2023-04-01T16:42:19;0.60;;;0.60;;
7969;SDS011;4030;52.362;9.206;2023-04-01T16:47:35;0.80;;;0.70;;
7969;SDS011;4030;52.362;9.206;2023-04-01T16:50:12;0.60;;;0.60;;
7969;SDS011;4030;52.362;9.206;2023-04-01T16:53:06;0.63;;;0.63;;
7969;SDS011;4030;52.362;9.206;2023-04-01T16:58:27;0.63;;;0.63;;
7969;SDS011;4030;52.362;9.206;2023-04-01T17:01:16;0.50;;;0.50;;
7969;SDS011;4030;52.362;9.206;2023-04-01T17:25:02;4.18;;;3.22;;
7969;SDS011;4030;52.362;9.206;2023-04-01T17:30:39;4.90;;;4.40;;
7969;SDS011;4030;52.362;9.206;2023-04-01T17:33:42;4.10;;;3.70;;
7969;SDS011;4030;52.362;9.206;2023-04-01T17:36:21;4.15;;;3.75;;
7969;SDS011;4030;52.362;9.206;2023-04-01T17:50:49;2.10;;;1.90;;
7969;SDS011;4030;52.362;9.206;2023-04-01T18:02:21;1.60;;;1.50;;
7969;SDS011;4030;52.362;9.206;2023-04-01T18:11:00;1.30;;;1.10;;
7969;SDS011;4030;52.362;9.206;2023-04-01T18:17:01;1.10;;;1.00;;
7969;SDS011;4030;52.362;9.206;2023-04-01T18:20:20;1.10;;;1.00;;
7969;SDS011;4030;52.362;9.206;2023-04-01T18:23:19;0.90;;;0.90;;
7969;SDS011;4030;52.362;9.206;2023-04-01T18:25:55;0.82;;;0.80;;
7969;SDS011;4030;52.362;9.206;2023-04-01T18:31:10;1.15;;;0.90;;
7969;SDS011;4030;52.362;9.206;2023-04-01T18:33:48;0.80;;;0.80;;
7969;SDS011;4030;52.362;9.206;2023-04-01T18:45:09;1.77;;;1.65;;
7969;SDS011;4030;52.362;9.206;2023-04-01T18:51:11;1.70;;;1.60;;
7969;SDS011;4030;52.362;9.206;2023-04-01T18:53:57;1.67;;;1.58;;
7969;SDS011;4030;52.362;9.206;2023-04-01T18:56:32;1.98;;;1.80;;
7969;SDS011;4030;52.362;9.206;2023-04-01T18:59:06;3.05;;;2.75;;
7969;SDS011;4030;52.362;9.206;2023-04-01T19:05:04;3.72;;;3.42;;
7969;SDS011;4030;52.362;9.206;2023-04-01T19:08:12;3.40;;;3.10;;
7969;SDS011;4030;52.362;9.206;2023-04-01T19:13:53;3.30;;;3.00;;
7969;SDS011;4030;52.362;9.206;2023-04-01T19:16:48;2.50;;;2.30;;
7969;SDS011;4030;52.362;9.206;2023-04-01T19:19:47;2.45;;;2.25;;
7969;SDS011;4030;52.362;9.206;2023-04-01T19:22:32;2.80;;;2.10;;
7969;SDS011;4030;52.362;9.206;2023-04-01T19:25:38;1.90;;;1.80;;
7969;SDS011;4030;52.362;9.206;2023-04-01T19:31:04;1.70;;;1.60;;
7969;SDS011;4030;52.362;9.206;2023-04-01T19:39:33;1.27;;;1.17;;
7969;SDS011;4030;52.362;9.206;2023-04-01T19:42:29;1.98;;;1.17;;
7969;SDS011;4030;52.362;9.206;2023-04-01T19:53:50;1.10;;;1.00;;
7969;SDS011;4030;52.362;9.206;2023-04-01T19:56:31;0.93;;;0.90;;
7969;SDS011;4030;52.362;9.206;2023-04-01T20:04:41;0.80;;;0.80;;
7969;SDS011;4030;52.362;9.206;2023-04-01T20:10:13;1.00;;;0.90;;
7969;SDS011;4030;52.362;9.206;2023-04-01T20:12:47;0.80;;;0.80;;
7969;SDS011;4030;52.362;9.206;2023-04-01T20:18:01;0.80;;;0.80;;
7969;SDS011;4030;52.362;9.206;2023-04-01T20:20:34;2.28;;;1.20;;
7969;SDS011;4030;52.362;9.206;2023-04-01T20:25:45;0.85;;;0.70;;
7969;SDS011;4030;52.362;9.206;2023-04-01T20:39:34;0.80;;;0.70;;
7969;SDS011;4030;52.362;9.206;2023-04-01T20:42:29;1.75;;;0.90;;
7969;SDS011;4030;52.362;9.206;2023-04-01T20:51:24;1.65;;;1.00;;
7969;SDS011;4030;52.362;9.206;2023-04-01T20:59:35;1.50;;;1.20;;
7969;SDS011;4030;52.362;9.206;2023-04-01T21:02:20;1.13;;;1.00;;
7969;SDS011;4030;52.362;9.206;2023-04-01T21:13:41;1.45;;;1.20;;
7969;SDS011;4030;52.362;9.206;2023-04-01T21:24:54;1.45;;;1.10;;
7969;SDS011;4030;52.362;9.206;2023-04-01T21:28:10;1.95;;;1.30;;
7969;SDS011;4030;52.362;9.206;2023-04-01T21:39:37;1.65;;;1.50;;
7969;SDS011;4030;52.362;9.206;2023-04-01T21:45:39;2.58;;;1.35;;
7969;SDS011;4030;52.362;9.206;2023-04-01T21:57:11;5.88;;;4.95;;
7969;SDS011;4030;52.362;9.206;2023-04-01T22:06:32;4.75;;;4.25;;
7969;SDS011;4030;52.362;9.206;2023-04-01T22:09:19;3.90;;;3.50;;
7969;SDS011;4030;52.362;9.206;2023-04-01T22:11:55;3.53;;;3.20;;
7969;SDS011;4030;52.362;9.206;2023-04-01T22:15:11;3.90;;;3.00;;
7969;SDS011;4030;52.362;9.206;2023-04-01T22:18:12;3.30;;;2.63;;
7969;SDS011;4030;52.362;9.206;2023-04-01T22:23:48;2.35;;;2.10;;
7969;SDS011;4030;52.362;9.206;2023-04-01T22:26:37;2.80;;;2.30;;
7969;SDS011;4030;52.362;9.206;2023-04-01T22:29:35;2.40;;;2.03;;
7969;SDS011;4030;52.362;9.206;2023-04-01T22:32:18;2.50;;;1.92;;
7969;SDS011;4030;52.362;9.206;2023-04-01T22:37:40;1.63;;;1.52;;
7969;SDS011;4030;52.362;9.206;2023-04-01T22:40:42;1.80;;;1.50;;
7969;SDS011;4030;52.362;9.206;2023-04-01T22:43:41;2.67;;;1.70;;
7969;SDS011;4030;52.362;9.206;2023-04-01T22:46:23;3.42;;;2.00;;
7969;SDS011;4030;52.362;9.206;2023-04-01T22:49:20;1.95;;;1.48;;
7969;SDS011;4030;52.362;9.206;2023-04-01T22:51:57;1.43;;;1.33;;
7969;SDS011;4030;52.362;9.206;2023-04-01T22:54:41;2.20;;;1.63;;
7969;SDS011;4030;52.362;9.206;2023-04-01T22:57:28;3.20;;;1.55;;
7969;SDS011;4030;52.362;9.206;2023-04-01T23:00:23;2.53;;;1.60;;
7969;SDS011;4030;52.362;9.206;2023-04-01T23:06:00;2.60;;;1.60;;
7969;SDS011;4030;52.362;9.206;2023-04-01T23:14:35;1.67;;;1.40;;
7969;SDS011;4030;52.362;9.206;2023-04-01T23:20:14;2.77;;;1.77;;
7969;SDS011;4030;52.362;9.206;2023-04-01T23:26:39;3.15;;;1.50;;
7969;SDS011;4030;52.362;9.206;2023-04-01T23:29:25;3.23;;;1.80;;
7969;SDS011;4030;52.362;9.206;2023-04-01T23:32:01;3.60;;;1.90;;
7969;SDS011;4030;52.362;9.206;2023-04-01T23:34:38;1.90;;;1.63;;
7969;SDS011;4030;52.362;9.206;2023-04-01T23:37:05;2.58;;;1.80;;
7969;SDS011;4030;52.362;9.206;2023-04-01T23:39:37;2.57;;;1.80;;
7969;SDS011;4030;52.362;9.206;2023-04-01T23:42:13;3.37;;;1.80;;
7969;SDS011;4030;52.362;9.206;2023-04-01T23:44:46;4.13;;;1.87;;
7969;SDS011;4030;52.362;9.206;2023-04-01T23:47:17;2.83;;;1.73;;
7969;SDS011;4030;52.362;9.206;2023-04-01T23:49:58;2.40;;;1.55;;
7969;SDS011;4030;52.362;9.206;2023-04-01T23:52:58;3.90;;;2.10;;
7969;SDS011;4030;52.362;9.206;2023-04-01T23:55:32;3.45;;;1.90;;
